Time;durP1;ratioP1;P1;durP2;ratioP2;P2;SDS_P1;SDS_P2;PMS_P1;PMS_P2;Temp;Humidity;BMP_temperature;BMP_pressure;BME280_temperature;BME280_humidity;BME280_pressure;Samples;Min_cycle;Max_cycle;Signal;HPM_P1;HPM_P2
2024/02/02 00:01:16;;;;;;;17.63;10.07;;;3.10;99.90;;;;;;5061516;28;20036;-92
2024/02/02 00:03:42;;;;;;;14.23;10.77;;;3.00;99.90;;;;;;5061276;28;20032;-92
2024/02/02 00:06:08;;;;;;;15.93;9.65;;;3.00;99.90;;;;;;5042870;28;20052;-92
2024/02/02 00:08:34;;;;;;;17.25;11.05;;;2.90;99.90;;;;;;5049653;28;20048;-92
2024/02/02 00:11:00;;;;;;;14.70;9.45;;;2.90;99.90;;;;;;5071615;28;20029;-92
2024/02/02 00:13:26;;;;;;;20.85;10.68;;;2.90;99.90;;;;;;5081690;28;20410;-92
2024/02/02 00:15:54;;;;;;;15.70;10.27;;;2.90;99.90;;;;;;5054409;28;20017;-92
2024/02/02 00:18:20;;;;;;;15.40;10.40;;;2.80;99.90;;;;;;5053110;28;20032;-92
2024/02/02 00:20:46;;;;;;;13.23;9.07;;;2.80;99.90;;;;;;5064410;28;20023;-93
2024/02/02 00:23:12;;;;;;;15.88;10.02;;;2.80;99.90;;;;;;5082019;28;20028;-92
2024/02/02 00:25:38;;;;;;;14.48;9.73;;;2.80;99.90;;;;;;5059218;28;20029;-90
2024/02/02 00:28:04;;;;;;;14.60;9.55;;;2.90;99.90;;;;;;5061758;28;20108;-92
2024/02/02 00:30:35;;;;;;;15.15;9.50;;;2.80;99.90;;;;;;5058670;28;20134;-92
2024/02/02 00:33:05;;;;;;;11.75;8.70;;;2.70;99.90;;;;;;5080402;28;20050;-93
2024/02/02 00:35:32;;;;;;;14.50;10.00;;;2.70;99.90;;;;;;5068484;28;20092;-91
2024/02/02 00:37:58;;;;;;;14.02;10.05;;;2.60;99.90;;;;;;5053223;28;20052;-90
2024/02/02 00:40:24;;;;;;;14.05;9.27;;;2.50;99.90;;;;;;5060224;28;20471;-93
2024/02/02 00:42:50;;;;;;;14.98;10.98;;;2.40;99.90;;;;;;5068960;28;20085;-92
2024/02/02 00:45:16;;;;;;;14.80;10.27;;;2.50;99.90;;;;;;5080904;28;20017;-92
2024/02/02 00:47:42;;;;;;;14.50;9.65;;;2.50;99.90;;;;;;5080249;28;20511;-91
2024/02/02 00:50:08;;;;;;;14.80;10.00;;;2.50;99.90;;;;;;5079809;28;20039;-91
2024/02/02 00:52:34;;;;;;;17.63;9.95;;;2.50;99.90;;;;;;5055896;28;20032;-93
2024/02/02 00:55:00;;;;;;;17.33;10.43;;;2.40;99.90;;;;;;5071729;28;20028;-94
2024/02/02 00:57:27;;;;;;;15.82;9.60;;;2.50;99.90;;;;;;5048759;28;20053;-91
2024/02/02 00:59:53;;;;;;;18.42;9.60;;;2.50;99.90;;;;;;5059700;28;20490;-91
2024/02/02 01:02:19;;;;;;;17.00;10.52;;;2.40;99.90;;;;;;5059077;28;20067;-93
2024/02/02 01:04:45;;;;;;;15.85;10.48;;;2.40;99.90;;;;;;5052144;28;20530;-91
2024/02/02 01:07:13;;;;;;;23.75;11.93;;;2.30;99.90;;;;;;5095926;28;20103;-93
2024/02/02 01:09:40;;;;;;;16.15;9.95;;;2.30;99.90;;;;;;5080583;28;20403;-93
2024/02/02 01:12:06;;;;;;;16.45;10.75;;;2.30;99.90;;;;;;5080155;28;20491;-91
2024/02/02 01:14:31;;;;;;;15.00;9.85;;;2.20;99.90;;;;;;5079642;28;20020;-93
2024/02/02 01:16:57;;;;;;;15.05;10.13;;;2.30;99.90;;;;;;5080994;28;20020;-92
2024/02/02 01:19:23;;;;;;;14.77;9.13;;;2.30;99.90;;;;;;5083506;28;20021;-91
2024/02/02 01:21:49;;;;;;;13.70;9.98;;;2.30;99.90;;;;;;5065500;28;20028;-92
2024/02/02 01:24:14;;;;;;;13.93;10.00;;;2.20;99.90;;;;;;5083764;28;20479;-93
2024/02/02 01:26:40;;;;;;;17.35;9.27;;;2.20;99.90;;;;;;5084872;28;20048;-93
2024/02/02 01:29:07;;;;;;;16.50;10.68;;;2.10;99.90;;;;;;5065144;28;20021;-91
2024/02/02 01:31:33;;;;;;;13.73;9.18;;;2.10;99.90;;;;;;5083201;28;20028;-92
2024/02/02 01:33:58;;;;;;;14.15;10.15;;;2.10;99.90;;;;;;5083049;28;20071;-92
2024/02/02 01:36:24;;;;;;;12.07;8.23;;;2.10;99.90;;;;;;5084364;28;20652;-92
2024/02/02 01:38:50;;;;;;;12.80;7.95;;;2.10;99.90;;;;;;5065974;28;20033;-93
2024/02/02 01:41:19;;;;;;;13.73;9.95;;;2.10;99.90;;;;;;5064085;28;20051;-92
2024/02/02 01:43:45;;;;;;;15.50;9.85;;;2.20;99.90;;;;;;5083349;28;20332;-92
2024/02/02 01:46:12;;;;;;;14.43;9.02;;;2.20;99.90;;;;;;5083169;28;20017;-92
2024/02/02 01:48:38;;;;;;;14.95;9.85;;;2.10;99.90;;;;;;5083339;28;20506;-91
2024/02/02 01:51:05;;;;;;;18.23;10.93;;;2.10;99.90;;;;;;5065134;28;20025;-92
2024/02/02 01:53:31;;;;;;;17.73;10.43;;;2.10;99.90;;;;;;5083331;28;20055;-93
2024/02/02 01:55:57;;;;;;;17.05;9.60;;;2.10;99.90;;;;;;5083625;28;20024;-92
2024/02/02 01:58:24;;;;;;;16.48;8.65;;;2.20;99.90;;;;;;5065868;28;20048;-92
2024/02/02 02:00:50;;;;;;;21.25;9.73;;;2.20;99.90;;;;;;5087160;28;20016;-93
2024/02/02 02:03:16;;;;;;;18.88;9.20;;;2.30;99.90;;;;;;5082722;28;20540;-92
2024/02/02 02:05:42;;;;;;;27.67;9.93;;;2.30;99.90;;;;;;5082858;28;20031;-92
2024/02/02 02:08:07;;;;;;;19.25;9.77;;;2.40;99.90;;;;;;5083238;28;20043;-93
2024/02/02 02:10:33;;;;;;;20.48;9.88;;;2.50;99.90;;;;;;5061178;28;20032;-92
2024/02/02 02:12:59;;;;;;;27.13;10.32;;;2.50;99.90;;;;;;5062995;28;20020;-91
2024/02/02 02:15:26;;;;;;;34.95;11.55;;;2.60;99.90;;;;;;5077352;28;20437;-92
2024/02/02 02:17:52;;;;;;;20.38;10.27;;;2.60;99.90;;;;;;5082828;28;20021;-91
2024/02/02 02:20:22;;;;;;;38.42;12.07;;;2.60;99.90;;;;;;5081773;28;20025;-92
2024/02/02 02:22:48;;;;;;;22.33;10.15;;;2.60;99.90;;;;;;5064541;28;20044;-91
2024/02/02 02:25:14;;;;;;;19.98;10.60;;;2.50;99.90;;;;;;5083104;28;20036;-92
2024/02/02 02:27:40;;;;;;;23.00;11.57;;;2.60;99.90;;;;;;5082540;28;20020;-91
2024/02/02 02:30:06;;;;;;;25.15;10.98;;;2.60;99.90;;;;;;5074863;28;20498;-92
2024/02/02 02:32:32;;;;;;;24.52;11.15;;;2.70;99.90;;;;;;5083519;28;20029;-92
2024/02/02 02:34:58;;;;;;;36.15;10.10;;;2.80;99.90;;;;;;5064040;28;20031;-93
2024/02/02 02:37:24;;;;;;;26.05;11.30;;;2.80;99.90;;;;;;5064899;28;20025;-93
2024/02/02 02:39:49;;;;;;;41.63;13.27;;;2.80;99.90;;;;;;5061148;28;20059;-93
2024/02/02 02:42:15;;;;;;;19.02;10.15;;;2.80;99.90;;;;;;5059637;28;20167;-91
2024/02/02 02:44:41;;;;;;;60.50;12.75;;;2.80;99.90;;;;;;5077687;28;20494;-91
2024/02/02 02:47:07;;;;;;;30.15;12.27;;;2.80;99.90;;;;;;5078965;28;20052;-90
2024/02/02 02:49:32;;;;;;;24.15;12.13;;;2.80;99.90;;;;;;5062817;28;20029;-93
2024/02/02 02:51:58;;;;;;;31.35;12.13;;;2.80;99.90;;;;;;5071647;28;20063;-91
2024/02/02 02:54:24;;;;;;;27.90;11.85;;;2.80;99.90;;;;;;5082843;28;20028;-93
2024/02/02 02:56:49;;;;;;;29.45;10.65;;;2.80;99.90;;;;;;5075366;28;20533;-93
2024/02/02 02:59:16;;;;;;;23.30;11.32;;;2.90;99.90;;;;;;5081313;28;20395;-93
2024/02/02 03:01:43;;;;;;;25.55;12.23;;;2.90;99.90;;;;;;5067452;28;20025;-93
2024/02/02 03:04:09;;;;;;;39.15;13.48;;;2.90;99.90;;;;;;5081237;28;20033;-91
2024/02/02 03:06:34;;;;;;;31.00;12.93;;;3.00;99.90;;;;;;5074713;28;20032;-92
2024/02/02 03:09:00;;;;;;;20.08;9.63;;;3.00;99.90;;;;;;5060634;28;20025;-92
2024/02/02 03:11:26;;;;;;;24.85;12.80;;;3.00;99.90;;;;;;5081332;28;20039;-92
2024/02/02 03:13:52;;;;;;;25.60;12.65;;;3.00;99.90;;;;;;5081554;28;20027;-90
2024/02/02 03:16:17;;;;;;;32.97;13.38;;;3.00;99.90;;;;;;5081182;28;20028;-92
2024/02/02 03:18:43;;;;;;;31.98;12.60;;;3.00;99.90;;;;;;5082136;28;20084;-92
2024/02/02 03:21:09;;;;;;;30.55;12.38;;;3.00;99.90;;;;;;5081500;28;20355;-90
2024/02/02 03:23:34;;;;;;;24.15;11.90;;;3.00;99.90;;;;;;5059763;28;20480;-92
2024/02/02 03:26:00;;;;;;;29.58;13.73;;;3.00;99.90;;;;;;5062874;28;20475;-92
2024/02/02 03:28:26;;;;;;;35.90;14.88;;;3.10;99.90;;;;;;5081551;28;20055;-92
2024/02/02 03:30:52;;;;;;;24.52;12.38;;;3.10;99.90;;;;;;5073038;28;20025;-93
2024/02/02 03:33:17;;;;;;;26.45;13.88;;;3.10;99.90;;;;;;5069927;28;20443;-91
2024/02/02 03:35:43;;;;;;;26.70;14.85;;;3.20;99.90;;;;;;5081217;28;20051;-92
2024/02/02 03:38:09;;;;;;;26.02;12.82;;;3.20;99.90;;;;;;5090225;28;20017;-94
2024/02/02 03:40:34;;;;;;;32.72;15.57;;;3.20;99.90;;;;;;5097641;28;20040;-92
2024/02/02 03:43:01;;;;;;;26.38;13.18;;;3.20;99.90;;;;;;5098078;28;20040;-93
2024/02/02 03:45:27;;;;;;;26.67;14.48;;;3.20;99.90;;;;;;5095513;28;20032;-92
2024/02/02 03:47:53;;;;;;;28.73;14.07;;;3.20;99.90;;;;;;5058147;28;20086;-90
2024/02/02 03:50:18;;;;;;;30.05;16.05;;;3.20;99.90;;;;;;5079902;28;20029;-93
2024/02/02 03:52:44;;;;;;;27.90;15.10;;;3.30;99.90;;;;;;5079870;28;20043;-90
2024/02/02 03:55:10;;;;;;;30.15;15.10;;;3.30;99.90;;;;;;5087425;28;20044;-93
2024/02/02 03:57:36;;;;;;;30.55;15.38;;;3.40;99.90;;;;;;5064201;28;20021;-91
2024/02/02 04:00:04;;;;;;;29.88;15.88;;;3.30;99.90;;;;;;5078653;28;20131;-91
2024/02/02 04:02:30;;;;;;;31.60;17.50;;;3.30;99.90;;;;;;5079418;28;20025;-92
2024/02/02 04:04:55;;;;;;;34.10;17.92;;;3.40;99.90;;;;;;5061622;28;20054;-93
2024/02/02 04:07:21;;;;;;;38.72;18.70;;;3.40;99.90;;;;;;5058223;28;20094;-91
2024/02/02 04:09:47;;;;;;;39.88;21.75;;;3.40;99.90;;;;;;5058557;28;20021;-91
2024/02/02 04:12:12;;;;;;;38.47;19.05;;;3.50;99.90;;;;;;5059366;28;20106;-91
2024/02/02 04:14:38;;;;;;;39.60;20.52;;;3.50;99.90;;;;;;5059162;28;20028;-92
2024/02/02 04:17:04;;;;;;;42.15;21.38;;;3.60;99.90;;;;;;5061312;28;20070;-92
2024/02/02 04:19:29;;;;;;;40.75;20.27;;;3.60;99.90;;;;;;5078914;28;20031;-92
2024/02/02 04:21:55;;;;;;;39.40;20.30;;;3.60;99.90;;;;;;5076094;28;20031;-91
2024/02/02 04:24:21;;;;;;;37.35;21.55;;;3.70;99.90;;;;;;5072038;28;20501;-92
2024/02/02 04:26:47;;;;;;;49.15;23.83;;;3.70;99.90;;;;;;5061496;28;20394;-91
2024/02/02 04:29:13;;;;;;;45.75;23.90;;;3.80;99.90;;;;;;5079513;28;20049;-92
2024/02/02 04:31:38;;;;;;;49.67;24.25;;;3.80;99.90;;;;;;5079232;28;20441;-91
2024/02/02 04:34:04;;;;;;;48.35;22.83;;;3.90;99.90;;;;;;5079810;28;20100;-91
2024/02/02 04:36:30;;;;;;;59.63;26.33;;;3.90;99.90;;;;;;5061052;28;20036;-91
2024/02/02 04:38:56;;;;;;;57.75;25.60;;;4.20;99.90;;;;;;5069616;28;20025;-92
2024/02/02 04:41:21;;;;;;;58.17;27.50;;;4.20;99.90;;;;;;5069911;28;20486;-91
2024/02/02 04:43:47;;;;;;;59.10;26.17;;;4.40;99.90;;;;;;5069336;28;20035;-92
2024/02/02 04:46:13;;;;;;;67.05;28.70;;;4.50;99.90;;;;;;5079542;28;20118;-92
2024/02/02 04:48:38;;;;;;;59.28;26.75;;;4.70;99.90;;;;;;5085219;28;20114;-93
2024/02/02 04:51:05;;;;;;;58.17;24.88;;;4.80;99.90;;;;;;5078162;28;20017;-91
2024/02/02 04:53:31;;;;;;;62.92;26.77;;;4.80;99.90;;;;;;5072824;28;20077;-92
2024/02/02 04:55:56;;;;;;;54.53;26.33;;;4.90;99.90;;;;;;5079657;28;20529;-91
2024/02/02 04:58:22;;;;;;;55.60;26.17;;;4.90;99.90;;;;;;5080048;28;20029;-91
2024/02/02 05:00:48;;;;;;;56.10;24.13;;;4.90;99.90;;;;;;5079936;28;20029;-92
2024/02/02 05:03:13;;;;;;;54.13;24.90;;;5.00;99.90;;;;;;5050085;28;20635;-93
2024/02/02 05:05:39;;;;;;;53.92;26.40;;;5.00;99.90;;;;;;5075768;28;20032;-91
2024/02/02 05:08:05;;;;;;;53.97;23.80;;;5.00;99.90;;;;;;5080777;28;20050;-91
2024/02/02 05:10:32;;;;;;;60.67;25.30;;;5.00;99.90;;;;;;5075730;28;20036;-92
2024/02/02 05:12:58;;;;;;;52.60;24.80;;;5.00;99.90;;;;;;5061877;28;20028;-91
2024/02/02 05:15:24;;;;;;;56.42;25.17;;;5.00;99.90;;;;;;5079392;28;20536;-92
2024/02/02 05:17:49;;;;;;;56.20;25.02;;;5.00;99.90;;;;;;5083861;28;20068;-94
2024/02/02 05:20:15;;;;;;;58.30;25.88;;;5.00;99.90;;;;;;5083440;28;20079;-93
2024/02/02 05:22:41;;;;;;;55.95;24.05;;;5.10;99.90;;;;;;5063962;28;20032;-93
2024/02/02 05:25:07;;;;;;;54.10;25.85;;;5.10;99.90;;;;;;5064273;28;20031;-91
2024/02/02 05:27:32;;;;;;;55.28;26.35;;;5.00;99.90;;;;;;5081354;28;20029;-92
2024/02/02 05:29:59;;;;;;;52.63;22.90;;;5.00;99.90;;;;;;5058101;28;20036;-90
2024/02/02 05:32:24;;;;;;;62.83;27.40;;;5.00;99.90;;;;;;5073228;28;20048;-93
2024/02/02 05:34:50;;;;;;;55.83;25.02;;;5.10;99.90;;;;;;5079796;28;20042;-92
2024/02/02 05:37:17;;;;;;;59.45;27.98;;;5.10;99.90;;;;;;5049349;28;20033;-91
2024/02/02 05:39:42;;;;;;;58.53;26.70;;;5.20;99.90;;;;;;5054294;28;20091;-91
2024/02/02 05:42:08;;;;;;;53.97;25.33;;;5.20;99.90;;;;;;5070222;28;20730;-93
2024/02/02 05:44:34;;;;;;;55.80;26.98;;;5.20;99.90;;;;;;5060765;28;20025;-93
2024/02/02 05:46:59;;;;;;;61.28;27.38;;;5.30;99.90;;;;;;5061282;28;20048;-92
2024/02/02 05:49:25;;;;;;;54.13;26.02;;;5.30;99.90;;;;;;5079571;28;20054;-92
2024/02/02 05:51:51;;;;;;;55.58;27.10;;;5.30;99.90;;;;;;5079798;28;20067;-91
2024/02/02 05:54:17;;;;;;;56.60;27.13;;;5.30;99.90;;;;;;5064113;28;20096;-92
2024/02/02 05:56:42;;;;;;;55.30;25.52;;;5.30;99.90;;;;;;5055599;28;20066;-90
2024/02/02 05:59:08;;;;;;;55.88;24.67;;;5.30;99.90;;;;;;5060017;28;20060;-92
2024/02/02 06:01:34;;;;;;;50.08;24.70;;;5.30;99.90;;;;;;5060743;28;20031;-92
2024/02/02 06:04:00;;;;;;;49.45;24.45;;;5.30;99.90;;;;;;5081065;28;20107;-91
2024/02/02 06:06:25;;;;;;;51.05;23.55;;;5.30;99.90;;;;;;5076716;28;20021;-92
2024/02/02 06:08:51;;;;;;;55.17;25.90;;;5.30;99.90;;;;;;5061744;28;20493;-92
2024/02/02 06:11:17;;;;;;;50.67;24.77;;;5.20;99.90;;;;;;5080990;28;20024;-93
2024/02/02 06:13:42;;;;;;;55.88;26.42;;;5.30;99.90;;;;;;5082339;28;20040;-94
2024/02/02 06:16:10;;;;;;;47.83;23.67;;;5.30;99.90;;;;;;5049453;28;20031;-91
2024/02/02 06:18:36;;;;;;;56.38;25.42;;;5.30;99.90;;;;;;5068611;28;20025;-91
2024/02/02 06:21:02;;;;;;;50.15;25.73;;;5.30;99.90;;;;;;5086094;28;20013;-91
2024/02/02 06:23:28;;;;;;;46.92;25.05;;;5.30;99.90;;;;;;5084096;28;20017;-91
2024/02/02 06:25:54;;;;;;;51.90;24.83;;;5.30;99.90;;;;;;5074437;28;20076;-92
2024/02/02 06:28:20;;;;;;;47.53;23.42;;;5.30;99.90;;;;;;5056787;28;20084;-92
2024/02/02 06:30:48;;;;;;;50.70;23.10;;;5.30;99.90;;;;;;5062166;28;20021;-91
2024/02/02 06:33:16;;;;;;;48.97;25.83;;;5.30;99.90;;;;;;5074480;28;20530;-91
2024/02/02 06:35:43;;;;;;;;;;;5.30;99.90;;;;;;5082331;28;20025;-91
2024/02/02 06:38:11;;;;;;;42.40;22.60;;;5.30;99.90;;;;;;5048333;28;19912;-94
2024/02/02 06:40:37;;;;;;;46.78;20.88;;;5.30;99.90;;;;;;5061041;28;20025;-93
2024/02/02 06:43:04;;;;;;;46.80;22.85;;;5.30;99.90;;;;;;5064677;28;20031;-91
2024/02/02 06:45:30;;;;;;;46.53;23.50;;;5.30;99.90;;;;;;5077142;28;20035;-93
2024/02/02 06:47:56;;;;;;;47.35;22.40;;;5.30;99.90;;;;;;5081196;28;20028;-92
2024/02/02 06:50:22;;;;;;;45.25;23.38;;;5.30;99.90;;;;;;5081601;28;20086;-90
2024/02/02 06:52:48;;;;;;;46.47;21.23;;;5.30;99.90;;;;;;5082447;28;20085;-92
2024/02/02 06:55:14;;;;;;;44.20;21.02;;;5.40;99.90;;;;;;5082200;28;20020;-93
2024/02/02 06:57:41;;;;;;;40.97;19.75;;;5.40;99.90;;;;;;5081251;28;20029;-94
2024/02/02 07:00:13;;;;;;;40.42;20.58;;;5.40;99.90;;;;;;5073608;28;20395;-92
2024/02/02 07:02:39;;;;;;;38.90;18.60;;;5.40;99.90;;;;;;5065302;28;20044;-92
2024/02/02 07:05:05;;;;;;;40.03;19.33;;;5.50;99.90;;;;;;5081886;28;20387;-91
2024/02/02 07:07:31;;;;;;;38.40;20.13;;;5.40;99.90;;;;;;5083848;28;20070;-93
2024/02/02 07:09:56;;;;;;;38.00;20.05;;;5.50;99.90;;;;;;5082179;28;20024;-93
2024/02/02 07:12:56;;;;;;;36.40;19.10;;;5.50;99.90;;;;;;5081883;28;20043;-92
2024/02/02 07:15:24;;;;;;;40.10;18.55;;;5.50;99.90;;;;;;5081907;28;20110;-91
2024/02/02 07:17:51;;;;;;;36.42;17.63;;;5.50;99.90;;;;;;5061917;28;20016;-92
2024/02/02 07:20:22;;;;;;;36.53;17.33;;;5.40;99.90;;;;;;5068523;28;20036;-92
2024/02/02 07:22:56;;;;;;;33.63;17.45;;;5.50;99.90;;;;;;5054979;28;20033;-91
2024/02/02 07:25:24;;;;;;;30.63;17.13;;;5.50;99.90;;;;;;5071442;28;20064;-92
2024/02/02 07:27:55;;;;;;;33.28;17.10;;;5.50;99.90;;;;;;5079990;28;20490;-92
2024/02/02 07:30:43;;;;;;;31.17;16.50;;;5.50;99.90;;;;;;5079448;28;20016;-91
2024/02/02 07:33:40;;;;;;;31.85;18.10;;;5.50;99.90;;;;;;5062505;28;20110;-91
2024/02/02 07:36:31;;;;;;;32.92;16.00;;;5.60;99.90;;;;;;5068862;28;20025;-92
2024/02/02 07:38:58;;;;;;;34.25;18.30;;;5.60;99.90;;;;;;5089425;28;20028;-94
2024/02/02 07:41:28;;;;;;;29.23;14.98;;;5.60;99.90;;;;;;5094749;28;20102;-92
2024/02/02 07:43:59;;;;;;;32.45;16.60;;;5.60;99.90;;;;;;5093002;28;20032;-94
2024/02/02 07:46:25;;;;;;;29.35;16.05;;;5.60;99.90;;;;;;5080385;28;20017;-94
2024/02/02 07:48:52;;;;;;;29.77;16.13;;;5.60;99.90;;;;;;5095707;28;20050;-95
2024/02/02 07:51:18;;;;;;;30.77;16.33;;;5.70;99.90;;;;;;5068602;28;20068;-93
2024/02/02 07:53:45;;;;;;;26.33;13.63;;;5.70;99.90;;;;;;5094447;28;20004;-93
2024/02/02 07:56:12;;;;;;;27.25;15.20;;;5.70;99.90;;;;;;5095051;28;20024;-94
2024/02/02 07:58:39;;;;;;;28.58;14.15;;;5.80;99.90;;;;;;5076564;28;20140;-92
2024/02/02 08:01:06;;;;;;;32.65;16.02;;;5.80;99.90;;;;;;5071668;28;20422;-92
2024/02/02 08:03:34;;;;;;;26.30;15.52;;;5.80;99.90;;;;;;5073882;28;20073;-92
2024/02/02 08:06:00;;;;;;;31.38;16.20;;;5.80;99.90;;;;;;5075834;28;20020;-91
2024/02/02 08:08:25;;;;;;;25.63;13.10;;;5.80;99.90;;;;;;5078249;28;20074;-91
2024/02/02 08:10:51;;;;;;;26.77;13.85;;;5.90;99.90;;;;;;5074310;28;20035;-91
2024/02/02 08:13:18;;;;;;;26.98;14.75;;;5.90;99.90;;;;;;5048103;28;20029;-92
2024/02/02 08:15:44;;;;;;;24.70;13.48;;;6.00;99.90;;;;;;5051685;28;20510;-92
2024/02/02 08:18:11;;;;;;;27.40;15.00;;;6.00;99.90;;;;;;5078948;28;20024;-91
2024/02/02 08:20:37;;;;;;;22.95;12.85;;;6.10;99.90;;;;;;5077055;28;20021;-92
2024/02/02 08:23:04;;;;;;;30.38;14.55;;;6.10;99.90;;;;;;5077324;28;20038;-90
2024/02/02 08:25:30;;;;;;;27.15;15.18;;;6.20;99.90;;;;;;5075872;28;20039;-92
2024/02/02 08:27:56;;;;;;;25.95;13.10;;;6.20;99.90;;;;;;5049302;28;20021;-92
2024/02/02 08:30:25;;;;;;;22.77;11.73;;;6.20;99.90;;;;;;5056643;28;20074;-91
2024/02/02 08:32:51;;;;;;;25.65;11.98;;;6.20;99.90;;;;;;5056344;28;20090;-92
2024/02/02 08:35:21;;;;;;;20.58;11.10;;;6.20;99.90;;;;;;5069412;28;20028;-91
2024/02/02 08:37:54;;;;;;;21.70;11.63;;;6.30;99.90;;;;;;5051163;28;20028;-93
2024/02/02 08:40:43;;;;;;;24.13;11.07;;;6.40;99.90;;;;;;5073211;28;20043;-93
2024/02/02 08:43:09;;;;;;;24.45;10.95;;;6.40;99.90;;;;;;5077804;28;20123;-91
2024/02/02 08:45:41;;;;;;;27.55;12.52;;;6.50;99.90;;;;;;5059138;28;20065;-92
2024/02/02 08:48:33;;;;;;;22.13;11.38;;;6.50;99.90;;;;;;5082120;28;20020;-92
2024/02/02 08:50:59;;;;;;;22.33;11.63;;;6.50;99.90;;;;;;5043559;28;20451;-94
2024/02/02 08:53:26;;;;;;;20.42;9.77;;;6.50;99.90;;;;;;5071227;28;20054;-92
2024/02/02 08:56:00;;;;;;;22.92;10.55;;;6.50;99.90;;;;;;5058186;28;20197;-92
2024/02/02 08:58:31;;;;;;;17.63;9.00;;;6.60;99.90;;;;;;5084151;28;20035;-93
2024/02/02 09:00:57;;;;;;;22.27;9.45;;;6.60;99.90;;;;;;5076757;28;20038;-95
2024/02/02 09:03:46;;;;;;;15.70;8.85;;;6.70;99.90;;;;;;5068546;28;20172;-93
2024/02/02 09:06:27;;;;;;;21.42;11.38;;;6.80;99.90;;;;;;5056694;28;20051;-92
2024/02/02 09:08:53;;;;;;;17.30;8.52;;;6.80;99.90;;;;;;5075648;28;20029;-92
2024/02/02 09:11:21;;;;;;;16.25;8.35;;;6.70;99.90;;;;;;5078058;28;20235;-94
2024/02/02 09:13:48;;;;;;;16.70;9.35;;;6.80;99.90;;;;;;5077255;28;20035;-94
2024/02/02 09:16:15;;;;;;;21.17;10.52;;;6.80;99.90;;;;;;5078231;28;20072;-92
2024/02/02 09:18:44;;;;;;;17.60;10.10;;;6.80;99.90;;;;;;5078174;28;20056;-91
2024/02/02 09:21:12;;;;;;;20.95;10.75;;;6.80;99.90;;;;;;5077393;28;20053;-91
2024/02/02 09:23:44;;;;;;;19.25;9.68;;;6.90;99.90;;;;;;5070761;28;20037;-92
2024/02/02 09:26:11;;;;;;;18.55;9.07;;;6.80;99.90;;;;;;5068356;28;20017;-91
2024/02/02 09:28:41;;;;;;;24.45;10.38;;;6.90;99.90;;;;;;5054000;28;20021;-93
2024/02/02 09:31:10;;;;;;;17.33;9.15;;;6.80;99.90;;;;;;5066108;28;20017;-91
2024/02/02 09:34:08;;;;;;;15.35;9.73;;;6.80;99.90;;;;;;5047184;28;20056;-92
2024/02/02 09:36:34;;;;;;;16.92;9.65;;;6.80;99.90;;;;;;5043241;28;20147;-93
2024/02/02 09:39:25;;;;;;;18.90;10.85;;;6.90;99.90;;;;;;5071148;28;20052;-92
2024/02/02 09:42:05;;;;;;;17.75;8.55;;;6.90;99.90;;;;;;5081017;28;20044;-92
2024/02/02 09:44:31;;;;;;;14.18;8.73;;;7.00;99.90;;;;;;5081491;28;20054;-92
2024/02/02 09:47:27;;;;;;;20.52;10.25;;;7.00;99.90;;;;;;5081585;28;20028;-93
2024/02/02 09:50:08;;;;;;;17.52;8.50;;;7.00;99.90;;;;;;5073656;28;20080;-91
2024/02/02 09:52:55;;;;;;;15.68;7.95;;;7.10;99.90;;;;;;5080028;28;20033;-94
2024/02/02 09:55:24;;;;;;;17.40;9.05;;;7.10;99.90;;;;;;5074197;28;20031;-92
2024/02/02 09:58:01;;;;;;;19.08;10.70;;;7.10;99.90;;;;;;5080912;28;20036;-91
2024/02/02 10:00:42;;;;;;;19.27;10.88;;;7.20;99.90;;;;;;5080339;28;20016;-92
2024/02/02 10:03:34;;;;;;;19.17;10.50;;;7.20;99.90;;;;;;5074035;28;20056;-93
2024/02/02 10:06:06;;;;;;;20.55;11.27;;;7.20;99.90;;;;;;5081795;28;20036;-93
2024/02/02 10:08:58;;;;;;;16.95;9.20;;;7.20;99.90;;;;;;5088054;28;20080;-92
2024/02/02 10:11:24;;;;;;;17.98;10.23;;;7.20;99.90;;;;;;5081478;28;20032;-92
2024/02/02 10:14:08;;;;;;;17.20;9.27;;;7.30;99.90;;;;;;5063498;28;20052;-92
2024/02/02 10:16:52;;;;;;;21.35;10.50;;;7.50;99.90;;;;;;5057243;28;20017;-92
2024/02/02 10:19:40;;;;;;;15.68;9.27;;;7.60;99.90;;;;;;5051016;28;20024;-92
2024/02/02 10:22:11;;;;;;;18.60;9.43;;;7.70;99.90;;;;;;5082161;28;20063;-93
2024/02/02 10:24:58;;;;;;;22.42;10.75;;;7.70;99.90;;;;;;5049429;28;20021;-92
2024/02/02 10:27:23;;;;;;;;;;;7.80;99.90;;;;;;5073608;28;20107;-92
2024/02/02 10:30:27;;;;;;;18.08;9.95;;;8.00;99.90;;;;;;5064930;28;19951;-92
2024/02/02 10:33:27;;;;;;;15.10;7.60;;;8.10;99.90;;;;;;5078661;28;20123;-92
2024/02/02 10:36:07;;;;;;;18.88;7.93;;;8.20;99.90;;;;;;5061979;28;20059;-93
2024/02/02 10:38:33;;;;;;;13.57;7.40;;;8.30;99.90;;;;;;5073134;28;20383;-93
2024/02/02 10:41:15;;;;;;;15.48;7.32;;;8.40;99.90;;;;;;5077421;28;20444;-92
2024/02/02 10:44:16;;;;;;;19.02;9.95;;;8.40;99.90;;;;;;5077761;28;20020;-91
2024/02/02 10:47:05;;;;;;;14.73;7.22;;;8.30;99.90;;;;;;4976636;28;20027;-92
2024/02/02 10:49:40;;;;;;;15.45;8.88;;;8.40;99.90;;;;;;5044489;28;20036;-93
2024/02/02 10:52:26;;;;;;;14.13;8.73;;;8.40;99.90;;;;;;5079314;28;20043;-93
2024/02/02 10:55:27;;;;;;;15.88;8.25;;;8.40;99.90;;;;;;5080532;28;20039;-91
2024/02/02 10:58:25;;;;;;;19.90;9.90;;;8.50;99.90;;;;;;5080327;28;20040;-91
2024/02/02 11:01:38;;;;;;;19.15;10.05;;;8.50;99.90;;;;;;5021314;28;20028;-92
2024/02/02 11:04:26;;;;;;;19.20;10.00;;;8.50;99.90;;;;;;5053252;28;20048;-93
2024/02/02 11:07:16;;;;;;;18.00;8.10;;;8.50;99.90;;;;;;5080639;28;20460;-93
2024/02/02 11:10:01;;;;;;;12.38;7.90;;;8.60;99.90;;;;;;5082244;28;20020;-93
2024/02/02 11:12:48;;;;;;;16.17;8.57;;;8.70;99.90;;;;;;5075770;28;20089;-93
2024/02/02 11:15:43;;;;;;;15.23;7.50;;;9.00;99.90;;;;;;5054321;28;20093;-92
2024/02/02 11:18:12;;;;;;;13.38;7.22;;;9.30;99.90;;;;;;5078907;28;20021;-92
2024/02/02 11:21:07;;;;;;;13.13;8.70;;;9.40;99.90;;;;;;5068911;28;20292;-92
2024/02/02 11:23:41;;;;;;;9.85;5.18;;;9.60;96.70;;;;;;5057249;28;20033;-93
2024/02/02 11:26:19;;;;;;;9.95;5.03;;;9.50;97.50;;;;;;5078331;28;20019;-93
2024/02/02 11:28:51;;;;;;;12.18;6.18;;;9.50;97.40;;;;;;5055935;28;20486;-92
2024/02/02 11:31:41;;;;;;;12.07;5.35;;;9.40;95.90;;;;;;5078572;28;20542;-91
2024/02/02 11:34:29;;;;;;;14.82;7.13;;;9.50;96.20;;;;;;5076348;28;20081;-91
2024/02/02 11:36:57;;;;;;;12.57;7.30;;;9.50;96.00;;;;;;5076766;28;20044;-92
2024/02/02 11:39:32;;;;;;;14.00;9.15;;;9.70;96.50;;;;;;5078990;28;20020;-93
2024/02/02 11:41:59;;;;;;;13.40;7.25;;;9.70;95.10;;;;;;5078678;28;20020;-94
2024/02/02 11:44:27;;;;;;;15.43;8.75;;;9.60;97.10;;;;;;5068489;28;20066;-92
2024/02/02 11:46:55;;;;;;;12.25;6.80;;;9.70;98.10;;;;;;5077967;28;20024;-93
2024/02/02 11:49:30;;;;;;;14.60;6.88;;;9.80;96.10;;;;;;5060201;28;20024;-92
2024/02/02 11:52:04;;;;;;;12.82;6.68;;;10.10;95.60;;;;;;5060377;28;20020;-93
2024/02/02 11:55:10;;;;;;;13.40;6.75;;;10.10;92.00;;;;;;5054268;28;20048;-92
2024/02/02 11:57:42;;;;;;;8.23;4.47;;;10.20;92.50;;;;;;5084225;28;20028;-94
2024/02/02 12:00:17;;;;;;;8.63;4.32;;;10.20;87.10;;;;;;5084874;28;20036;-93
2024/02/02 12:02:51;;;;;;;;;;;10.40;87.60;;;;;;5087146;28;20094;-93
2024/02/02 12:05:28;;;;;;;11.43;4.75;;;10.30;84.90;;;;;;5085488;28;19950;-93
2024/02/02 12:08:06;;;;;;;8.98;3.33;;;10.30;85.90;;;;;;5083317;28;20107;-93
2024/02/02 12:10:39;;;;;;;9.93;3.17;;;10.50;85.70;;;;;;5081428;28;20115;-93
2024/02/02 12:13:09;;;;;;;10.05;5.88;;;10.60;83.60;;;;;;5080889;28;20028;-93
2024/02/02 12:15:35;;;;;;;8.65;4.63;;;10.40;85.50;;;;;;5091241;28;20024;-94
2024/02/02 12:18:00;;;;;;;9.30;6.00;;;10.40;85.90;;;;;;5081108;28;20029;-92
2024/02/02 12:20:29;;;;;;;12.27;5.43;;;10.50;86.60;;;;;;5066157;28;20078;-94
2024/02/02 12:22:55;;;;;;;11.02;5.95;;;10.50;89.10;;;;;;5054939;28;20037;-92
2024/02/02 12:25:20;;;;;;;9.68;4.53;;;10.60;86.70;;;;;;5081908;28;20564;-93
2024/02/02 12:27:46;;;;;;;11.13;5.22;;;10.50;85.90;;;;;;5062562;28;20040;-91
2024/02/02 12:30:14;;;;;;;13.90;7.03;;;10.50;86.50;;;;;;5076257;28;20028;-94
2024/02/02 12:32:50;;;;;;;11.60;5.20;;;10.40;88.20;;;;;;5058800;28;20035;-92
2024/02/02 12:35:16;;;;;;;13.30;5.95;;;10.50;88.80;;;;;;5046379;28;20029;-92
2024/02/02 12:37:48;;;;;;;13.15;5.85;;;10.60;86.90;;;;;;5060066;28;20035;-94
2024/02/02 12:40:15;;;;;;;11.93;5.47;;;10.60;86.30;;;;;;5057847;28;20027;-94
2024/02/02 12:42:41;;;;;;;7.85;5.07;;;10.60;88.10;;;;;;5087632;28;20023;-93
2024/02/02 12:45:14;;;;;;;11.07;7.03;;;10.50;86.20;;;;;;5081278;28;20000;-92
2024/02/02 12:47:40;;;;;;;10.40;5.63;;;10.70;87.20;;;;;;5084446;28;20013;-93
2024/02/02 12:50:14;;;;;;;10.13;6.07;;;10.60;86.30;;;;;;5087137;28;20080;-93
2024/02/02 12:52:42;;;;;;;10.25;5.15;;;10.60;85.30;;;;;;5063654;28;20028;-93
2024/02/02 12:55:08;;;;;;;;;;;10.60;87.80;;;;;;5085803;28;20032;-93